createdAt,value
2023-01-22T00:02:44.157Z,2.90
2023-01-22T00:07:45.938Z,2.90
2023-01-22T00:12:47.770Z,3.13
2023-01-22T00:17:49.556Z,3.13
2023-01-22T00:22:51.263Z,2.47
2023-01-22T00:27:54.111Z,2.42
2023-01-22T00:32:55.946Z,2.10
2023-01-22T00:37:59.218Z,2.60
2023-01-22T00:43:01.132Z,2.70
2023-01-22T00:48:03.231Z,2.90
2023-01-22T00:53:05.079Z,2.55
2023-01-22T00:58:06.910Z,2.72
2023-01-22T01:03:27.486Z,2.60
2023-01-22T01:08:32.402Z,2.70
2023-01-22T01:13:38.513Z,2.70
2023-01-22T01:18:40.497Z,3.08
2023-01-22T01:23:42.891Z,2.38
2023-01-22T01:28:45.855Z,3.40
2023-01-22T01:33:48.205Z,3.67
2023-01-22T01:38:51.530Z,2.25
2023-01-22T01:44:14.228Z,2.70
2023-01-22T01:49:22.544Z,3.33
2023-01-22T01:54:25.887Z,2.70
2023-01-22T01:59:28.210Z,2.92
2023-01-22T02:04:30.867Z,3.47
2023-01-22T02:09:34.426Z,3.22
2023-01-22T02:14:40.622Z,3.50
2023-01-22T02:19:44.246Z,3.28
2023-01-22T02:24:46.289Z,2.80
2023-01-22T02:29:48.521Z,3.35
2023-01-22T02:34:50.948Z,3.58
2023-01-22T02:39:52.916Z,3.22
2023-01-22T02:44:55.041Z,3.25
2023-01-22T02:49:56.868Z,3.60
2023-01-22T02:54:58.901Z,3.55
2023-01-22T03:00:00.925Z,4.68
2023-01-22T03:05:05.769Z,3.55
2023-01-22T03:10:10.899Z,3.42
2023-01-22T03:15:32.130Z,4.00
2023-01-22T03:20:55.545Z,4.55
2023-01-22T03:25:57.387Z,3.97
2023-01-22T03:31:00.633Z,4.40
2023-01-22T03:36:06.339Z,3.70
2023-01-22T03:41:16.271Z,4.20
2023-01-22T03:46:20.093Z,3.92
2023-01-22T03:51:26.382Z,4.35
2023-01-22T03:56:28.576Z,4.30
2023-01-22T04:01:36.004Z,4.00
2023-01-22T04:06:37.859Z,4.90
2023-01-22T04:11:39.845Z,4.88
2023-01-22T04:16:44.178Z,4.70
2023-01-22T04:22:18.182Z,4.82
2023-01-22T04:27:21.637Z,4.63
2023-01-22T04:32:26.385Z,5.20
2023-01-22T04:37:46.201Z,5.15
2023-01-22T04:42:48.218Z,4.50
2023-01-22T04:47:50.135Z,4.07
2023-01-22T04:52:56.416Z,4.45
2023-01-22T04:58:00.177Z,4.43
2023-01-22T05:03:04.618Z,4.50
2023-01-22T05:08:06.888Z,4.47
2023-01-22T05:13:11.480Z,4.45
2023-01-22T05:18:14.272Z,4.15
2023-01-22T05:23:28.174Z,5.00
2023-01-22T05:28:30.695Z,4.63
2023-01-22T05:34:07.976Z,3.97
2023-01-22T05:39:10.227Z,4.65
2023-01-22T05:44:14.059Z,5.05
2023-01-22T05:49:19.007Z,4.95
2023-01-22T05:54:20.962Z,5.28
2023-01-22T05:59:23.885Z,4.78
2023-01-22T06:04:34.007Z,5.10
2023-01-22T06:09:39.399Z,5.13
2023-01-22T06:14:41.556Z,4.85
2023-01-22T06:19:44.081Z,3.60
2023-01-22T06:24:47.277Z,5.15
2023-01-22T06:29:51.578Z,4.72
2023-01-22T06:34:53.850Z,5.10
2023-01-22T06:39:55.727Z,4.80
2023-01-22T06:45:10.943Z,5.30
2023-01-22T06:50:18.900Z,4.75
2023-01-22T06:55:20.956Z,4.97
2023-01-22T07:00:23.547Z,3.90
2023-01-22T07:05:27.532Z,5.10
2023-01-22T07:10:29.410Z,4.63
2023-01-22T07:15:31.277Z,4.65
2023-01-22T07:20:33.016Z,4.55
2023-01-22T07:25:35.188Z,4.28
2023-01-22T07:30:37.546Z,5.70
2023-01-22T07:35:40.053Z,5.10
2023-01-22T07:40:41.913Z,4.88
2023-01-22T07:45:43.735Z,5.05
2023-01-22T07:50:45.515Z,5.00
2023-01-22T07:55:47.307Z,4.45
2023-01-22T08:00:49.360Z,4.55
2023-01-22T08:05:51.185Z,4.93
2023-01-22T08:10:52.942Z,4.78
2023-01-22T08:15:55.210Z,4.60
2023-01-22T08:21:01.125Z,5.72
2023-01-22T08:26:04.446Z,3.92
2023-01-22T08:31:09.362Z,4.47
2023-01-22T08:36:13.202Z,4.57
2023-01-22T08:41:15.787Z,5.22
2023-01-22T08:46:17.609Z,5.82
2023-01-22T08:51:19.950Z,6.00
2023-01-22T08:56:22.170Z,6.60
2023-01-22T09:01:24.390Z,7.05
2023-01-22T09:06:27.343Z,7.53
2023-01-22T09:11:29.812Z,4.45
2023-01-22T09:16:32.967Z,5.90
2023-01-22T09:21:37.455Z,5.90
2023-01-22T09:26:39.453Z,5.88
2023-01-22T09:31:41.245Z,6.45
2023-01-22T09:36:43.369Z,5.70
2023-01-22T09:41:53.686Z,5.88
2023-01-22T09:47:03.902Z,5.35
2023-01-22T09:52:09.871Z,5.70
2023-01-22T09:57:30.673Z,6.45
2023-01-22T10:02:47.218Z,7.53
2023-01-22T10:08:05.827Z,6.40
2023-01-22T10:13:27.709Z,7.72
2023-01-22T10:18:55.837Z,7.40
2023-01-22T10:23:59.333Z,6.78
2023-01-22T10:29:23.595Z,6.85
2023-01-22T10:34:32.925Z,6.15
2023-01-22T10:39:45.220Z,6.68
2023-01-22T10:44:47.630Z,6.88
2023-01-22T10:50:06.020Z,9.68
2023-01-22T10:55:21.649Z,8.25
2023-01-22T11:00:42.950Z,7.63
2023-01-22T11:05:58.997Z,7.63
2023-01-22T11:16:16.374Z,6.68
2023-01-22T11:21:35.513Z,6.45
2023-01-22T11:27:14.596Z,8.20
2023-01-22T11:32:22.252Z,6.65
2023-01-22T11:37:58.867Z,7.90
2023-01-22T11:43:18.899Z,6.90
2023-01-22T11:48:44.094Z,6.78
2023-01-22T11:54:06.309Z,6.13
2023-01-22T11:59:35.166Z,6.65
2023-01-22T12:05:12.025Z,5.93
2023-01-22T12:11:07.719Z,7.22
2023-01-22T12:16:22.123Z,6.88
2023-01-22T12:21:35.310Z,7.72
2023-01-22T12:26:45.850Z,6.30
2023-01-22T12:32:04.939Z,8.13
2023-01-22T12:37:11.011Z,7.18
2023-01-22T12:42:13.926Z,6.95
2023-01-22T12:47:27.339Z,9.23
2023-01-22T12:52:36.475Z,8.60
2023-01-22T12:57:41.175Z,9.75
2023-01-22T13:02:43.119Z,8.05
2023-01-22T13:07:45.951Z,7.85
2023-01-22T13:12:53.070Z,7.10
2023-01-22T13:18:17.132Z,8.97
2023-01-22T13:23:21.552Z,8.63
2023-01-22T13:28:28.507Z,7.30
2023-01-22T13:33:31.679Z,8.60
2023-01-22T13:38:33.583Z,7.50
2023-01-22T13:43:38.152Z,8.93
2023-01-22T13:48:40.459Z,8.38
2023-01-22T13:53:52.000Z,7.22
2023-01-22T13:59:19.500Z,7.60
2023-01-22T14:04:37.625Z,6.70
2023-01-22T14:14:43.778Z,7.30
2023-01-22T14:19:45.625Z,7.65
2023-01-22T14:24:55.149Z,6.38
2023-01-22T14:29:57.047Z,7.38
2023-01-22T14:35:04.632Z,8.00
2023-01-22T14:40:07.480Z,6.32
2023-01-22T14:45:10.427Z,6.57
2023-01-22T14:50:16.608Z,6.35
2023-01-22T14:55:19.647Z,6.53
2023-01-22T15:00:21.756Z,6.82
2023-01-22T15:05:24.096Z,6.15
2023-01-22T15:10:25.906Z,5.68
2023-01-22T15:15:28.622Z,5.47
2023-01-22T15:20:30.470Z,5.95
2023-01-22T15:25:32.386Z,4.97
2023-01-22T15:30:34.157Z,5.70
2023-01-22T15:35:35.992Z,4.38
2023-01-22T15:40:40.888Z,5.20
2023-01-22T15:45:42.740Z,5.63
2023-01-22T15:50:44.651Z,5.13
2023-01-22T15:55:50.310Z,5.00
2023-01-22T16:00:52.077Z,4.82
2023-01-22T16:05:54.132Z,4.68
2023-01-22T16:10:56.231Z,4.88
2023-01-22T16:16:04.373Z,4.93
2023-01-22T16:21:07.515Z,4.70
2023-01-22T16:26:14.074Z,5.18
2023-01-22T16:31:18.932Z,6.00
2023-01-22T16:36:25.660Z,5.30
2023-01-22T16:41:30.418Z,5.45
2023-01-22T16:46:34.155Z,4.43
2023-01-22T16:51:41.112Z,5.15
2023-01-22T16:56:45.814Z,5.27
2023-01-22T17:01:47.971Z,6.43
2023-01-22T17:06:55.578Z,5.03
2023-01-22T17:12:00.707Z,5.97
2023-01-22T17:18:08.458Z,5.20
2023-01-22T17:23:10.378Z,6.00
2023-01-22T17:28:12.450Z,6.43
2023-01-22T17:33:14.833Z,5.95
2023-01-22T17:38:19.488Z,6.22
2023-01-22T17:43:23.086Z,6.05
2023-01-22T17:48:34.196Z,6.70
2023-01-22T17:53:42.745Z,6.70
2023-01-22T18:03:48.692Z,6.72
2023-01-22T18:15:12.974Z,5.55
2023-01-22T18:20:15.157Z,6.82
2023-01-22T18:25:25.876Z,6.03
2023-01-22T18:30:27.888Z,6.55
2023-01-22T18:35:29.755Z,6.40
2023-01-22T18:40:32.161Z,6.82
2023-01-22T18:45:35.955Z,5.75
2023-01-22T18:57:39.840Z,6.03
2023-01-22T19:02:50.872Z,6.32
2023-01-22T19:08:53.537Z,6.47
2023-01-22T19:22:06.201Z,6.22
2023-01-22T19:27:43.164Z,6.47
2023-01-22T19:33:11.486Z,5.22
2023-01-22T19:39:21.865Z,4.13
2023-01-22T19:44:25.810Z,5.15
2023-01-22T19:49:43.045Z,5.50
2023-01-22T19:54:48.364Z,5.17
2023-01-22T20:00:05.810Z,5.88
2023-01-22T20:05:12.127Z,5.47
2023-01-22T20:10:29.650Z,5.18
2023-01-22T20:16:43.181Z,5.60
2023-01-22T20:21:49.079Z,5.68
2023-01-22T20:27:01.377Z,5.03
2023-01-22T20:32:03.600Z,5.25
2023-01-22T20:37:05.550Z,5.53
2023-01-22T20:42:07.671Z,4.68
2023-01-22T20:47:09.617Z,5.95
2023-01-22T20:52:11.480Z,5.38
2023-01-22T20:57:18.328Z,5.47
2023-01-22T21:02:29.917Z,4.95
2023-01-22T21:07:35.601Z,5.20
2023-01-22T21:12:47.044Z,5.40
2023-01-22T21:17:49.051Z,5.60
2023-01-22T21:22:54.238Z,5.47
2023-01-22T21:27:58.816Z,5.85
2023-01-22T21:33:00.796Z,5.95
2023-01-22T21:38:02.785Z,5.82
2023-01-22T21:43:23.123Z,6.13
2023-01-22T21:48:25.179Z,6.28
2023-01-22T21:53:42.527Z,5.53
2023-01-22T21:58:45.388Z,6.80
2023-01-22T22:03:51.191Z,6.40
2023-01-22T22:08:53.143Z,6.20
2023-01-22T22:14:01.870Z,6.18
2023-01-22T22:19:29.333Z,6.10
2023-01-22T22:29:49.009Z,6.90
2023-01-22T22:34:55.652Z,6.70
2023-01-22T22:39:58.571Z,6.78
2023-01-22T22:45:12.640Z,6.82
2023-01-22T22:50:14.833Z,6.22
2023-01-22T22:55:16.717Z,6.50
2023-01-22T23:00:19.396Z,7.82
2023-01-22T23:05:21.649Z,6.72
2023-01-22T23:10:29.418Z,7.28
2023-01-22T23:20:34.986Z,6.53
2023-01-22T23:25:36.938Z,6.90
2023-01-22T23:30:39.578Z,6.78
2023-01-22T23:35:41.857Z,8.15
2023-01-22T23:40:43.740Z,7.78
2023-01-22T23:45:47.034Z,7.65
2023-01-22T23:50:50.724Z,7.90
2023-01-22T23:56:05.585Z,8.30
